Time;durP1;ratioP1;P1;durP2;ratioP2;P2;SDS_P1;SDS_P2;PMS_P1;PMS_P2;Temp;Humidity;BMP_temperature;BMP_pressure;BME280_temperature;BME280_humidity;BME280_pressure;Samples;Min_cycle;Max_cycle;Signal;HPM_P1;HPM_P2
2023/04/15 06:17:25;;;;;;;;;1.00;1.00;;;;;9.09;80.18;100532.88;6225356;22;46397;-72
2023/04/15 06:19:54;;;;;;;;;1.00;1.00;;;;;9.12;79.41;100541.75;6243954;22;45188;-72
2023/04/15 06:22:22;;;;;;;;;2.00;2.00;;;;;9.17;78.55;100542.78;6243276;22;47453;-73
2023/04/15 06:24:51;;;;;;;;;5.00;3.00;;;;;9.04;79.70;100530.13;6246166;22;45438;-72
2023/04/15 06:27:17;;;;;;;;;2.00;2.00;;;;;9.24;79.46;100557.00;6246096;22;45168;-72
2023/04/15 06:29:43;;;;;;;;;3.75;2.00;;;;;8.82;79.35;100486.50;6245212;22;45489;-72
2023/04/15 06:32:08;;;;;;;;;1.00;1.00;;;;;9.12;79.91;100539.13;6244983;22;46135;-72
2023/04/15 06:34:34;;;;;;;;;3.00;1.75;;;;;9.22;79.55;100565.75;6244652;22;45263;-72
2023/04/15 06:37:00;;;;;;;;;2.75;2.75;;;;;9.03;80.64;100530.97;6245845;22;45327;-72
2023/04/15 06:39:26;;;;;;;;;1.00;1.00;;;;;9.19;79.66;100556.00;6244212;22;46929;-71
2023/04/15 06:41:51;;;;;;;;;2.00;2.00;;;;;9.29;79.06;100568.56;6246405;22;45870;-72
2023/04/15 06:44:17;;;;;;;;;3.00;2.00;;;;;9.45;79.48;100600.63;6245041;22;45277;-72
2023/04/15 06:46:43;;;;;;;;;2.75;2.75;;;;;9.17;79.23;100541.88;6246271;22;45444;-72
2023/04/15 06:49:08;;;;;;;;;1.25;1.25;;;;;9.42;78.39;100596.16;6242606;22;45783;-72
2023/04/15 06:51:35;;;;;;;;;2.50;2.50;;;;;9.44;78.42;100599.75;6244793;22;45306;-72
2023/04/15 06:54:01;;;;;;;;;3.00;3.00;;;;;9.52;79.17;100613.09;6244800;22;45136;-72
2023/04/15 06:56:27;;;;;;;;;1.00;1.00;;;;;9.52;80.07;100615.75;6245592;22;45409;-72
2023/04/15 06:58:52;;;;;;;;;3.00;3.00;;;;;9.44;78.62;100609.38;6245286;22;45264;-72
2023/04/15 07:01:17;;;;;;;;;4.00;3.00;;;;;9.55;79.50;100627.28;6245648;22;46164;-72
2023/04/15 07:03:43;;;;;;;;;2.50;2.50;;;;;9.54;78.42;100621.97;6244972;22;45228;-72
2023/04/15 07:06:09;;;;;;;;;3.25;2.00;;;;;9.34;78.38;100593.31;6244119;22;45148;-72
2023/04/15 07:08:34;;;;;;;;;2.00;2.00;;;;;9.58;78.05;100647.59;6243514;22;45405;-72
2023/04/15 07:11:00;;;;;;;;;3.00;2.00;;;;;9.59;78.74;100646.72;6244464;22;45271;-72
2023/04/15 07:13:25;;;;;;;;;2.00;2.00;;;;;9.58;78.20;100655.50;6244847;22;45308;-72
2023/04/15 07:15:51;;;;;;;;;2.75;2.75;;;;;9.41;78.72;100631.31;6243675;22;44758;-74
2023/04/15 07:18:16;;;;;;;;;30.75;25.25;;;;;9.60;77.99;100664.31;6256734;22;45252;-75
2023/04/15 07:20:42;;;;;;;;;1.25;1.00;;;;;9.43;78.79;100639.25;6248005;22;54279;-75
2023/04/15 07:23:07;;;;;;;;;8.00;4.25;;;;;9.33;78.81;100625.84;6274728;22;45496;-73
2023/04/15 07:25:33;;;;;;;;;1.25;1.00;;;;;9.62;78.10;100673.19;6246581;22;45296;-72
2023/04/15 07:27:58;;;;;;;;;4.00;1.50;;;;;9.45;79.04;100648.13;6275947;22;45248;-73
2023/04/15 07:30:23;;;;;;;;;3.00;3.00;;;;;9.54;78.93;100677.38;6276509;22;45287;-73
2023/04/15 07:32:49;;;;;;;;;1.00;1.00;;;;;9.47;78.99;100668.41;6275915;22;45296;-73
2023/04/15 07:35:14;;;;;;;;;2.00;2.00;;;;;9.46;79.16;100671.88;6276598;22;45284;-73
2023/04/15 07:37:42;;;;;;;;;3.00;1.50;;;;;9.37;79.29;100658.47;6275985;22;45208;-73
2023/04/15 07:40:08;;;;;;;;;2.00;2.00;;;;;9.41;78.96;100673.53;6276307;22;45262;-73
2023/04/15 07:42:33;;;;;;;;;2.00;2.00;;;;;9.54;79.54;100698.47;6247813;22;45227;-73
2023/04/15 07:44:59;;;;;;;;;1.75;1.75;;;;;9.64;78.42;100716.34;6248422;22;45265;-73
2023/04/15 07:47:25;;;;;;;;;1.75;1.00;;;;;9.34;78.23;100658.38;6275673;22;45428;-73
2023/04/15 07:49:51;;;;;;;;;1.25;1.00;;;;;9.65;79.37;100739.25;6276053;22;46003;-73
2023/04/15 07:52:17;;;;;;;;;1.75;1.50;;;;;9.46;79.58;100706.19;6275719;22;45185;-73
2023/04/15 07:54:42;;;;;;;;;3.25;2.00;;;;;9.45;78.38;100711.44;6276435;22;45267;-73
2023/04/15 07:57:07;;;;;;;;;2.00;2.00;;;;;9.70;78.55;100753.47;6275605;22;48037;-73
2023/04/15 07:59:32;;;;;;;;;2.00;2.00;;;;;9.59;78.43;100739.09;6276103;22;54966;-73
2023/04/15 08:01:58;;;;;;;;;4.25;3.00;;;;;9.64;78.65;100753.31;6276399;22;55618;-73
2023/04/15 08:04:23;;;;;;;;;4.00;2.00;;;;;9.64;79.32;100759.47;6277232;22;45750;-73
2023/04/15 08:06:49;;;;;;;;;2.00;2.00;;;;;9.51;78.60;100738.88;6277217;22;45486;-73
2023/04/15 08:09:15;;;;;;;;;2.25;1.75;;;;;9.72;78.51;100775.53;6277262;22;45903;-72
2023/04/15 08:11:40;;;;;;;;;1.25;1.25;;;;;9.59;77.69;100758.44;6277320;22;45244;-73
2023/04/15 08:14:05;;;;;;;;;1.00;0.25;;;;;9.63;78.07;100778.81;6277597;22;45181;-71
2023/04/15 08:16:31;;;;;;;;;0.00;0.00;;;;;9.72;78.97;100795.72;6277700;22;45415;-71
2023/04/15 08:18:56;;;;;;;;;0.75;0.75;;;;;9.66;77.74;100785.88;6276721;22;44989;-73
2023/04/15 08:21:22;;;;;;;;;0.00;0.00;;;;;9.69;78.44;100801.84;6278426;22;45150;-73
2023/04/15 08:23:51;;;;;;;;;0.75;0.00;;;;;9.52;77.90;100772.34;6278065;22;45208;-73
2023/04/15 08:26:18;;;;;;;;;1.00;1.00;;;;;9.70;77.54;100800.09;6277894;22;45224;-73
2023/04/15 08:28:45;;;;;;;;;5.25;3.50;;;;;9.61;77.70;100784.88;6248438;22;47199;-73
2023/04/15 08:31:12;;;;;;;;;1.00;1.00;;;;;9.64;78.19;100801.69;6278789;22;45162;-73
2023/04/15 08:33:38;;;;;;;;;1.00;1.00;;;;;9.79;77.82;100816.16;6249439;22;45306;-73
2023/04/15 08:36:03;;;;;;;;;10.00;10.00;;;;;9.94;78.25;100842.09;6277756;22;45441;-74
2023/04/15 08:38:29;;;;;;;;;26.25;23.75;;;;;9.82;77.92;100806.56;6249404;22;47001;-73
2023/04/15 08:40:57;;;;;;;;;4.00;4.00;;;;;9.75;78.50;100775.59;6278446;22;47378;-73
2023/04/15 08:43:27;;;;;;;;;3.00;1.50;;;;;10.24;77.63;100840.28;6278016;22;45298;-74
2023/04/15 08:45:53;;;;;;;;;8.50;5.25;;;;;10.40;77.60;100854.81;6250813;22;45612;-73
2023/04/15 08:48:21;;;;;;;;;3.00;1.50;;;;;10.61;77.70;100867.66;6277735;22;45235;-74
2023/04/15 08:50:47;;;;;;;;;1.00;1.00;;;;;10.72;76.67;100860.91;6277159;22;45284;-74
2023/04/15 08:53:14;;;;;;;;;4.25;3.50;;;;;10.70;76.46;100846.78;6277199;22;45254;-74
2023/04/15 08:55:44;;;;;;;;;5.25;4.75;;;;;10.86;75.87;100858.59;6277570;22;45257;-74
2023/04/15 08:58:11;;;;;;;;;2.00;2.00;;;;;11.03;76.18;100882.78;6248765;22;45324;-77
2023/04/15 09:00:37;;;;;;;;;3.25;3.00;;;;;11.03;75.78;100879.25;6276799;22;44607;-74
2023/04/15 09:03:05;;;;;;;;;1.00;1.00;;;;;11.06;74.57;100893.47;6275903;22;45373;-74
2023/04/15 09:05:40;;;;;;;;;3.00;3.00;;;;;11.01;74.04;100892.47;6275702;22;45379;-74
2023/04/15 09:08:05;;;;;;;;;3.00;2.00;;;;;11.03;73.52;100903.06;6276391;22;45323;-74
2023/04/15 09:10:33;;;;;;;;;2.00;2.00;;;;;10.92;74.61;100886.94;6276412;22;45249;-74
2023/04/15 09:12:58;;;;;;;;;1.00;1.00;;;;;10.77;73.97;100873.34;6248833;22;45237;-74
2023/04/15 09:15:26;;;;;;;;;1.25;1.00;;;;;10.93;74.73;100925.78;6277207;22;45782;-75
2023/04/15 09:17:52;;;;;;;;;0.25;0.25;;;;;10.71;74.43;100901.44;6276025;22;45449;-75
2023/04/15 09:20:17;;;;;;;;;6.25;6.00;;;;;10.67;74.71;100922.44;6276857;22;45399;-74
2023/04/15 09:22:45;;;;;;;;;1.50;0.50;;;;;10.71;73.72;100945.47;6248962;22;45309;-74
2023/04/15 09:25:28;;;;;;;;;2.25;2.25;;;;;10.63;73.86;100947.91;6249528;22;45368;-74
2023/04/15 09:28:00;;;;;;;;;5.75;4.50;;;;;10.63;74.63;100957.59;6248569;22;47314;-74
2023/04/15 09:30:27;;;;;;;;;3.50;2.50;;;;;10.59;74.72;100961.91;6276587;22;45244;-73
2023/04/15 09:32:57;;;;;;;;;8.25;6.75;;;;;10.43;74.01;100943.84;6276327;22;45306;-73
2023/04/15 09:35:24;;;;;;;;;7.25;7.25;;;;;10.48;74.53;100963.38;6276830;22;45367;-74
2023/04/15 09:37:50;;;;;;;;;3.25;3.25;;;;;10.22;74.46;100929.19;6276587;22;45226;-73
2023/04/15 09:40:36;;;;;;;;;5.25;5.25;;;;;10.26;74.59;100932.78;6277131;22;45296;-73
2023/04/15 09:43:02;;;;;;;;;4.25;2.75;;;;;10.47;73.89;100982.72;6277011;22;45170;-74
2023/04/15 09:45:28;;;;;;;;;11.00;11.00;;;;;10.37;74.91;100956.91;6277009;22;45288;-73
2023/04/15 09:47:53;;;;;;;;;3.00;3.00;;;;;10.62;74.12;100992.84;6275941;22;45991;-73
2023/04/15 09:50:19;;;;;;;;;2.50;2.50;;;;;10.68;74.05;101001.81;6277272;22;45225;-73
2023/04/15 09:52:46;;;;;;;;;3.75;2.75;;;;;10.76;74.31;101002.03;6276731;22;45192;-73
2023/04/15 09:55:13;;;;;;;;;1.50;1.50;;;;;10.83;73.22;101006.59;6276994;22;45150;-73
2023/04/15 09:57:43;;;;;;;;;2.00;2.00;;;;;10.80;73.90;100987.13;6276354;22;45098;-73
2023/04/15 10:00:10;;;;;;;;;1.00;1.00;;;;;11.04;73.43;101016.88;6276571;22;45253;-73
2023/04/15 10:02:36;;;;;;;;;1.00;1.00;;;;;11.18;73.22;101020.75;6276516;22;45138;-73
2023/04/15 10:05:02;;;;;;;;;1.50;1.00;;;;;11.29;73.14;101018.38;6276984;22;45166;-73
2023/04/15 10:07:28;;;;;;;;;2.50;2.50;;;;;11.45;72.67;101024.94;6276763;22;45181;-73
2023/04/15 10:09:54;;;;;;;;;2.00;2.00;;;;;11.55;72.67;101034.00;6276644;22;45237;-73
2023/04/15 10:12:21;;;;;;;;;4.75;4.75;;;;;11.40;71.79;101001.03;6277368;22;45582;-73
2023/04/15 10:14:58;;;;;;;;;2.00;1.00;;;;;11.69;72.23;101034.34;6276541;22;45244;-73
2023/04/15 10:17:27;;;;;;;;;1.25;1.25;;;;;11.76;72.01;101038.91;6276076;22;45311;-73
2023/04/15 10:19:54;;;;;;;;;3.75;3.75;;;;;11.82;71.94;101042.59;6276775;22;44606;-74
2023/04/15 10:22:21;;;;;;;;;1.75;1.75;;;;;11.92;71.65;101049.03;6276920;22;45296;-74
2023/04/15 10:24:48;;;;;;;;;1.50;1.50;;;;;11.93;71.86;101044.63;6276694;22;45257;-74
2023/04/15 10:27:15;;;;;;;;;1.00;1.00;;;;;12.07;71.34;101054.69;6275119;22;45280;-74
2023/04/15 10:29:41;;;;;;;;;4.75;3.00;;;;;12.06;70.78;101060.81;6276206;22;45150;-75
2023/04/15 10:32:07;;;;;;;;;5.75;5.75;;;;;12.02;70.83;101060.75;6276053;22;45193;-73
2023/04/15 10:34:33;;;;;;;;;3.00;3.00;;;;;11.82;70.23;101050.56;6248468;22;45845;-74
2023/04/15 10:37:02;;;;;;;;;6.25;3.00;;;;;11.73;70.29;101049.41;6276861;22;45309;-74
2023/04/15 10:39:41;;;;;;;;;1.00;1.00;;;;;11.80;70.46;101084.03;6276617;22;45269;-74
2023/04/15 10:42:18;;;;;;;;;1.75;1.75;;;;;11.71;70.34;101056.47;6275288;22;45067;-75
2023/04/15 10:44:48;;;;;;;;;2.00;2.00;;;;;11.87;70.87;101079.81;6276484;22;45149;-75
2023/04/15 10:47:19;;;;;;;;;1.00;1.00;;;;;11.66;70.24;101051.03;6274321;22;45317;-74
2023/04/15 10:49:56;;;;;;;;;1.00;1.00;;;;;11.83;69.86;101077.91;6248770;22;45736;-73
2023/04/15 10:52:24;;;;;;;;;4.25;2.00;;;;;11.65;69.67;101081.94;6276969;22;45283;-73
2023/04/15 10:55:02;;;;;;;;;2.00;2.00;;;;;11.60;70.17;101072.97;6274917;22;45504;-73
2023/04/15 10:57:34;;;;;;;;;2.00;2.00;;;;;11.73;69.21;101111.22;6248681;22;45239;-73
2023/04/15 11:00:09;;;;;;;;;1.50;1.50;;;;;11.47;69.74;101068.22;6277075;22;45263;-73
2023/04/15 11:02:40;;;;;;;;;3.00;2.00;;;;;11.67;69.58;101116.38;6276402;22;45261;-73
2023/04/15 11:05:06;;;;;;;;;4.75;3.00;;;;;11.47;69.69;101091.16;6277350;22;45315;-74
2023/04/15 11:07:34;;;;;;;;;1.00;1.00;;;;;11.54;69.64;101117.84;6249504;22;45345;-72
2023/04/15 11:10:00;;;;;;;;;4.00;4.00;;;;;11.51;69.14;101108.91;6277855;22;45179;-72
2023/04/15 11:12:35;;;;;;;;;8.00;8.00;;;;;11.58;69.14;101118.78;6278131;22;44624;-74
2023/04/15 11:15:36;;;;;;;;;6.25;5.50;;;;;11.71;69.26;101130.59;6277553;22;44778;-74
2023/04/15 11:18:13;;;;;;;;;5.50;5.00;;;;;11.80;69.27;101134.38;6276579;22;45304;-74
2023/04/15 11:20:41;;;;;;;;;7.00;6.00;;;;;11.79;68.80;101127.28;6276975;22;45288;-74
2023/04/15 11:23:08;;;;;;;;;4.25;4.25;;;;;11.90;68.57;101145.22;6248715;22;45285;-74
2023/04/15 11:25:36;;;;;;;;;14.50;11.50;;;;;11.89;68.38;101149.63;6248998;22;45490;-74
2023/04/15 11:28:01;;;;;;;;;16.50;13.00;;;;;11.67;68.11;101113.72;6247633;22;46956;-72
2023/04/15 11:30:29;;;;;;;;;10.00;10.00;;;;;11.96;68.53;101150.66;6276505;22;45213;-73
2023/04/15 11:32:58;;;;;;;;;8.25;7.75;;;;;12.06;68.84;101156.22;6247402;22;45201;-71
2023/04/15 11:35:23;;;;;;;;;10.00;8.00;;;;;11.69;68.25;101051.09;6277024;22;45523;-72
2023/04/15 11:37:49;;;;;;;;;8.50;7.00;;;;;12.28;68.49;101119.63;6248802;22;46177;-72
2023/04/15 11:40:18;;;;;;;;;22.50;20.25;;;;;12.66;68.16;101143.41;6277872;22;45342;-72
2023/04/15 11:42:44;;;;;;;;;16.00;14.00;;;;;12.96;67.94;101165.28;6250647;22;45416;-72
2023/04/15 11:45:11;;;;;;;;;6.25;5.25;;;;;13.11;67.53;101167.34;6249811;22;45227;-72
2023/04/15 11:47:38;;;;;;;;;8.50;7.25;;;;;13.19;66.80;101175.44;6276380;22;45232;-72
2023/04/15 11:50:33;;;;;;;;;10.00;7.25;;;;;13.26;66.66;101172.09;6249750;22;45202;-74
2023/04/15 11:53:01;;;;;;;;;3.00;3.00;;;;;13.21;65.52;101166.66;6251053;22;45253;-75
2023/04/15 11:55:28;;;;;;;;;3.67;3.67;;;;;13.22;65.03;101175.53;6277207;22;45183;-73
2023/04/15 11:58:10;;;;;;;;;7.00;7.00;;;;;13.29;64.99;101197.81;6277416;22;45273;-73
2023/04/15 12:00:37;;;;;;;;;9.25;8.00;;;;;13.36;65.18;101194.41;6277330;22;45363;-74
2023/04/15 12:03:11;;;;;;;;;9.50;9.50;;;;;13.39;65.36;101199.78;6277067;22;45303;-74
2023/04/15 12:06:13;;;;;;;;;6.50;6.50;;;;;13.25;64.95;101175.59;6277930;22;45343;-74
2023/04/15 12:08:54;;;;;;;;;5.00;5.00;;;;;13.32;64.79;101214.69;6276460;22;46347;-74
2023/04/15 12:11:20;;;;;;;;;13.25;9.75;;;;;13.29;63.46;101219.06;6277657;22;45262;-75
2023/04/15 12:13:47;;;;;;;;;6.33;4.00;;;;;12.96;64.02;101161.72;6249192;22;45336;-74
2023/04/15 12:16:19;;;;;;;;;17.25;13.25;;;;;13.09;64.13;101189.41;6247095;22;46971;-74
2023/04/15 12:18:46;;;;;;;;;11.50;10.50;;;;;13.31;64.56;101231.50;6275912;22;45292;-75
2023/04/15 12:21:12;;;;;;;;;4.00;4.00;;;;;13.07;64.44;101189.38;6276917;22;45292;-75
2023/04/15 12:23:50;;;;;;;;;13.75;11.50;;;;;13.31;64.34;101234.16;6249846;22;45271;-74
2023/04/15 12:26:17;;;;;;;;;46.00;35.75;;;;;13.38;64.21;101236.03;6277311;22;45304;-75
2023/04/15 12:28:42;;;;;;;;;5.75;5.75;;;;;13.25;64.52;101210.09;6276924;22;45295;-75
2023/04/15 12:31:10;;;;;;;;;9.75;8.50;;;;;13.50;63.76;101250.44;6249062;22;45216;-75
2023/04/15 12:33:36;;;;;;;;;9.75;9.75;;;;;13.49;63.35;101260.16;6277274;22;45220;-75
2023/04/15 12:36:02;;;;;;;;;25.25;23.75;;;;;13.45;61.90;101250.34;6248575;22;45506;-75
2023/04/15 12:38:29;;;;;;;;;9.25;8.25;;;;;13.56;62.63;101250.56;6276506;22;46081;-75
2023/04/15 12:40:54;;;;;;;;;15.25;14.75;;;;;13.27;63.30;101173.88;6277105;22;45169;-75
2023/04/15 12:43:19;;;;;;;;;27.50;24.50;;;;;13.81;62.73;101271.44;6277233;22;45125;-75
2023/04/15 12:45:45;;;;;;;;;20.50;18.25;;;;;13.80;62.81;101260.75;6276787;22;45220;-75
2023/04/15 12:48:11;;;;;;;;;12.50;10.00;;;;;13.83;62.69;101274.09;6276216;22;45229;-75
2023/04/15 12:50:36;;;;;;;;;11.50;8.25;;;;;13.83;61.37;101282.06;6277348;22;44654;-75
2023/04/15 12:53:02;;;;;;;;;8.75;8.25;;;;;13.76;61.71;101281.06;6277507;22;46329;-75
2023/04/15 12:55:29;;;;;;;;;12.00;12.00;;;;;13.72;60.70;101291.59;6277595;22;45246;-75
2023/04/15 12:57:55;;;;;;;;;13.00;11.50;;;;;13.49;61.87;101269.91;6248402;22;45659;-75
2023/04/15 13:00:20;;;;;;;;;5.67;5.67;;;;;13.02;60.47;101214.91;6249433;22;45265;-75
2023/04/15 13:02:45;;;;;;;;;15.25;14.00;;;;;13.38;61.67;101297.13;6276773;22;45955;-74
2023/04/15 13:05:13;;;;;;;;;4.67;4.67;;;;;13.23;61.21;101294.13;6249317;22;45949;-75
2023/04/15 13:07:39;;;;;;;;;3.67;3.33;;;;;13.19;61.32;101314.41;6277041;22;45246;-74
2023/04/15 13:10:05;;;;;;;;;3.67;3.67;;;;;13.03;61.91;101314.94;6277524;22;45260;-74
2023/04/15 13:12:31;;;;;;;;;3.00;3.00;;;;;13.07;62.21;101338.00;6276689;22;45157;-75
2023/04/15 13:14:57;;;;;;;;;4.00;4.00;;;;;12.79;62.05;101301.09;6249271;22;46063;-75
2023/04/15 13:17:22;;;;;;;;;8.00;6.75;;;;;12.96;61.81;101339.50;6276038;22;45284;-75
2023/04/15 13:19:47;;;;;;;;;7.50;5.00;;;;;12.90;62.22;101348.22;6277134;22;45315;-75
2023/04/15 13:22:14;;;;;;;;;5.00;4.00;;;;;12.86;62.98;101342.84;6249483;22;45315;-74
2023/04/15 13:24:39;;;;;;;;;2.67;2.67;;;;;12.64;62.31;101318.44;6275247;22;45449;-75
2023/04/15 13:27:06;;;;;;;;;3.00;3.00;;;;;12.84;62.15;101364.00;6248089;22;45278;-75
2023/04/15 13:29:31;;;;;;;;;3.00;2.00;;;;;12.65;62.54;101344.09;6277219;22;45533;-74
2023/04/15 13:31:57;;;;;;;;;2.00;1.00;;;;;12.75;62.34;101363.78;6278401;22;44654;-75
2023/04/15 13:34:22;;;;;;;;;2.00;2.00;;;;;12.76;62.62;101362.91;6278667;22;45410;-75
2023/04/15 13:36:47;;;;;;;;;1.33;1.33;;;;;12.83;62.29;101372.84;6279533;22;46231;-75
2023/04/15 13:39:12;;;;;;;;;2.00;2.00;;;;;12.77;62.11;101368.28;6252085;22;45507;-75
2023/04/15 13:41:39;;;;;;;;;3.67;3.67;;;;;12.90;62.71;101376.53;6279139;22;45252;-74
2023/04/15 13:44:04;;;;;;;;;2.25;2.25;;;;;12.96;62.51;101384.63;6278795;22;45500;-74
2023/04/15 13:46:30;;;;;;;;;4.75;4.75;;;;;13.02;62.54;101391.84;6278707;22;45915;-74
2023/04/15 13:48:55;;;;;;;;;3.00;2.00;;;;;12.99;62.52;101379.38;6277380;22;45170;-75
2023/04/15 13:51:21;;;;;;;;;4.67;4.67;;;;;13.03;62.17;101380.38;6277667;22;45276;-75
2023/04/15 13:53:46;;;;;;;;;4.00;4.00;;;;;13.08;62.03;101379.63;6249092;22;45574;-74
2023/04/15 13:56:11;;;;;;;;;2.33;2.33;;;;;13.27;61.57;101411.94;6248944;22;47723;-74
2023/04/15 13:58:37;;;;;;;;;3.33;3.00;;;;;13.35;61.49;101413.00;6275646;22;45329;-75
2023/04/15 14:01:03;;;;;;;;;7.75;6.25;;;;;13.29;60.86;101397.81;6277689;22;45287;-74
2023/04/15 14:03:29;;;;;;;;;7.00;6.00;;;;;13.49;61.33;101411.53;6248254;22;45673;-75
2023/04/15 14:05:55;;;;;;;;;2.00;2.00;;;;;13.52;60.65;101408.06;6277136;22;45316;-75
2023/04/15 14:08:21;;;;;;;;;3.00;3.00;;;;;13.51;61.15;101400.97;6277140;22;45264;-74
2023/04/15 14:10:49;;;;;;;;;4.00;4.00;;;;;13.63;60.65;101412.75;6249817;22;45170;-75
2023/04/15 14:13:14;;;;;;;;;5.00;4.00;;;;;13.69;60.68;101398.69;6248833;22;47183;-75
2023/04/15 14:15:40;;;;;;;;;3.33;3.33;;;;;13.93;60.10;101432.88;6276970;22;45215;-75
2023/04/15 14:18:06;;;;;;;;;4.00;4.00;;;;;14.01;60.36;101438.34;6276365;22;45229;-75
2023/04/15 14:20:31;;;;;;;;;3.67;3.67;;;;;14.04;60.48;101430.44;6249317;22;45411;-75
2023/04/15 14:22:56;;;;;;;;;3.67;3.67;;;;;14.12;60.25;101446.56;6248734;22;45221;-75
2023/04/15 14:25:22;;;;;;;;;2.00;2.00;;;;;14.21;60.87;101444.97;6248823;22;46665;-75
2023/04/15 14:27:47;;;;;;;;;4.00;4.00;;;;;14.18;59.71;101428.06;6223299;22;45264;-74
2023/04/15 14:30:13;;;;;;;;;3.00;3.00;;;;;14.37;60.10;101451.47;6277334;22;45931;-74
2023/04/15 14:32:38;;;;;;;;;5.67;5.67;;;;;14.44;59.72;101453.38;6276219;22;45361;-74
2023/04/15 14:35:04;;;;;;;;;7.00;5.67;;;;;14.28;59.35;101419.38;6276729;22;45229;-75
2023/04/15 14:37:29;;;;;;;;;5.33;5.00;;;;;14.48;59.25;101449.91;6276658;22;45217;-75
2023/04/15 14:39:55;;;;;;;;;7.00;7.00;;;;;14.52;59.32;101448.25;6249284;22;45610;-74
2023/04/15 14:42:20;;;;;;;;;7.00;5.67;;;;;14.45;59.05;101443.63;6276774;22;45249;-75
2023/04/15 14:44:46;;;;;;;;;4.00;4.00;;;;;14.34;58.37;101432.81;6277010;22;46091;-73
2023/04/15 14:47:11;;;;;;;;;11.00;8.00;;;;;14.59;60.09;101473.19;6276209;22;45236;-75
2023/04/15 14:49:37;;;;;;;;;9.67;7.67;;;;;14.46;59.06;101467.59;6276814;22;45281;-74
2023/04/15 14:52:03;;;;;;;;;6.00;6.00;;;;;14.55;60.05;101472.25;6276793;22;45113;-72
2023/04/15 14:54:28;;;;;;;;;7.33;6.33;;;;;14.61;59.79;101477.66;6276998;22;46121;-75
2023/04/15 14:56:54;;;;;;;;;4.67;4.67;;;;;14.51;59.43;101444.66;6248889;22;45220;-76
2023/04/15 14:59:20;;;;;;;;;2.33;2.33;;;;;14.69;58.20;101468.06;6277149;22;45516;-74
2023/04/15 15:01:45;;;;;;;;;5.00;5.00;;;;;14.55;58.22;101437.66;6276175;22;45098;-75
2023/04/15 15:04:11;;;;;;;;;6.33;5.00;;;;;14.76;57.99;101463.75;6276609;22;45604;-74
2023/04/15 15:06:37;;;;;;;;;9.33;8.00;;;;;15.00;58.73;101481.91;6276533;22;45205;-75
2023/04/15 15:09:03;;;;;;;;;21.50;17.00;;;;;15.01;58.57;101457.06;6276959;22;45300;-73
2023/04/15 15:11:28;;;;;;;;;6.00;5.00;;;;;14.96;57.79;101435.72;6278011;22;45299;-75
2023/04/15 15:13:55;;;;;;;;;11.00;9.33;;;;;15.35;57.72;101484.28;6277496;22;45255;-74
2023/04/15 15:16:20;;;;;;;;;4.00;4.00;;;;;15.26;57.53;101452.16;6278263;22;45255;-73
2023/04/15 15:18:46;;;;;;;;;17.67;13.00;;;;;15.57;58.21;101483.72;6249326;22;45252;-73
2023/04/15 15:21:11;;;;;;;;;6.00;6.00;;;;;15.74;56.82;101492.00;6278137;22;45468;-73
2023/04/15 15:23:36;;;;;;;;;8.67;7.67;;;;;15.76;57.74;101490.22;6278119;22;46123;-73
2023/04/15 15:26:02;;;;;;;;;5.00;3.00;;;;;15.84;55.83;101504.56;6277988;22;45239;-73
2023/04/15 15:28:27;;;;;;;;;13.00;13.00;;;;;15.62;54.03;101466.00;6277970;22;45259;-72
2023/04/15 15:30:53;;;;;;;;;6.67;5.33;;;;;15.82;55.12;101495.69;6277972;22;45154;-73
2023/04/15 15:33:19;;;;;;;;;4.33;3.00;;;;;15.65;53.74;101474.03;6277376;22;45797;-73
2023/04/15 15:35:45;;;;;;;;;9.00;7.33;;;;;15.69;56.36;101500.81;6277932;22;45219;-73
2023/04/15 15:38:11;;;;;;;;;8.67;7.67;;;;;15.69;56.65;101508.81;6277362;22;45141;-72
2023/04/15 15:40:36;;;;;;;;;12.00;9.00;;;;;15.72;55.84;101511.50;6277497;22;45494;-73
2023/04/15 15:43:02;;;;;;;;;13.33;9.67;;;;;15.56;56.39;101478.38;6277198;22;45864;-73
2023/04/15 15:45:28;;;;;;;;;7.00;6.00;;;;;15.66;56.73;101515.84;6277783;22;45224;-73
2023/04/15 15:47:55;;;;;;;;;6.33;5.33;;;;;15.44;56.63;101500.41;6276791;22;45203;-72
2023/04/15 15:50:21;;;;;;;;;9.00;7.67;;;;;15.31;56.01;101509.94;6277574;22;44845;-73
2023/04/15 15:52:46;;;;;;;;;6.67;5.67;;;;;15.09;55.67;101487.38;6249170;22;46708;-72
2023/04/15 15:55:11;;;;;;;;;5.67;5.67;;;;;15.24;55.90;101528.50;6277501;22;45240;-73
2023/04/15 15:57:36;;;;;;;;;6.00;6.00;;;;;14.96;56.03;101496.06;6277141;22;45237;-73
2023/04/15 16:00:02;;;;;;;;;6.00;6.00;;;;;15.02;55.53;101524.56;6278702;22;45173;-72
2023/04/15 16:02:29;;;;;;;;;7.67;7.00;;;;;14.98;54.74;101531.56;6250654;22;46182;-72
2023/04/15 16:04:54;;;;;;;;;10.00;9.33;;;;;14.95;55.51;101523.53;6251360;22;45249;-73
2023/04/15 16:07:20;;;;;;;;;6.67;6.67;;;;;15.01;55.68;101536.94;6277356;22;45382;-73
2023/04/15 16:09:45;;;;;;;;;18.67;14.33;;;;;15.06;55.44;101529.06;6278392;22;45284;-73
2023/04/15 16:12:10;;;;;;;;;10.33;7.00;;;;;15.15;55.13;101539.84;6278556;22;45309;-73
2023/04/15 16:14:36;;;;;;;;;9.33;9.33;;;;;15.18;55.53;101546.16;6278179;22;45239;-72
2023/04/15 16:17:01;;;;;;;;;7.33;6.00;;;;;15.29;55.39;101557.00;6278056;22;45252;-72
2023/04/15 16:19:26;;;;;;;;;9.00;8.00;;;;;15.29;55.62;101550.75;6249131;22;45422;-72
2023/04/15 16:21:52;;;;;;;;;14.67;11.67;;;;;15.24;54.97;101539.16;6249250;22;45962;-72
2023/04/15 16:24:17;;;;;;;;;6.67;6.67;;;;;15.42;54.66;101558.97;6277401;22;45653;-72
2023/04/15 16:26:42;;;;;;;;;15.33;14.33;;;;;15.49;54.80;101570.66;6277838;22;45293;-72
2023/04/15 16:29:08;;;;;;;;;9.67;8.33;;;;;15.39;54.37;101540.28;6277413;22;45305;-73
2023/04/15 16:31:35;;;;;;;;;8.00;8.00;;;;;15.54;54.22;101552.94;6276807;22;55959;-72
2023/04/15 16:34:01;;;;;;;;;6.67;5.67;;;;;15.72;53.82;101572.81;6276777;22;45210;-72
2023/04/15 16:36:27;;;;;;;;;7.00;7.00;;;;;15.44;54.63;101524.38;6277499;22;45162;-73
2023/04/15 16:38:52;;;;;;;;;6.33;6.00;;;;;15.62;53.68;101545.97;6276053;22;45477;-72
2023/04/15 16:41:18;;;;;;;;;4.00;4.00;;;;;15.58;53.43;101536.16;6277039;22;45146;-71
2023/04/15 16:43:43;;;;;;;;;5.67;5.67;;;;;15.87;53.58;101581.94;6276307;22;50207;-73
2023/04/15 16:46:08;;;;;;;;;8.00;7.00;;;;;15.84;53.54;101581.00;6277246;22;45222;-72
2023/04/15 16:48:34;;;;;;;;;10.00;6.00;;;;;15.77;54.35;101581.78;6276514;22;45482;-72
2023/04/15 16:50:59;;;;;;;;;8.00;8.00;;;;;15.65;54.88;101566.44;6277430;22;45978;-72
2023/04/15 16:53:25;;;;;;;;;12.67;11.00;;;;;15.63;53.48;101579.75;6276626;22;45173;-72
2023/04/15 16:55:50;;;;;;;;;15.00;12.00;;;;;15.69;54.01;101583.44;6249314;22;45425;-72
2023/04/15 16:58:16;;;;;;;;;13.00;11.00;;;;;15.61;54.83;101569.94;6248839;22;45683;-72
2023/04/15 17:00:41;;;;;;;;;10.67;10.33;;;;;15.49;53.79;101561.72;6277095;22;50853;-72
2023/04/15 17:03:07;;;;;;;;;10.67;10.67;;;;;15.33;54.70;101547.28;6276539;22;45272;-72
2023/04/15 17:05:32;;;;;;;;;12.00;10.67;;;;;15.35;54.25;101577.50;6277429;22;45193;-72
2023/04/15 17:07:58;;;;;;;;;16.00;15.00;;;;;15.42;54.52;101603.38;6276906;22;45441;-71
2023/04/15 17:10:23;;;;;;;;;10.00;10.00;;;;;15.27;54.64;101588.03;6277434;22;45980;-72
2023/04/15 17:12:50;;;;;;;;;18.33;18.33;;;;;15.25;54.48;101605.75;6249524;22;45445;-72
2023/04/15 17:15:16;;;;;;;;;13.00;13.00;;;;;15.21;55.25;101618.13;6277849;22;45459;-72
2023/04/15 17:17:41;;;;;;;;;15.00;14.67;;;;;15.05;54.79;101613.38;6248106;22;45458;-72
2023/04/15 17:20:07;;;;;;;;;13.00;13.00;;;;;15.00;55.63;101625.69;6277411;22;45190;-72
2023/04/15 17:22:32;;;;;;;;;15.00;15.00;;;;;14.68;55.33;101578.03;6277234;22;45092;-72
2023/04/15 17:24:58;;;;;;;;;13.00;12.00;;;;;14.80;55.50;101622.63;6278220;22;45314;-71
2023/04/15 17:27:25;;;;;;;;;14.00;12.00;;;;;14.51;55.63;101598.97;6277339;22;45410;-72
2023/04/15 17:29:50;;;;;;;;;13.67;12.67;;;;;14.55;56.06;101618.56;6277711;22;45180;-72
2023/04/15 17:32:15;;;;;;;;;14.00;14.00;;;;;14.40;56.35;101610.25;6275811;22;45179;-72
2023/04/15 17:34:41;;;;;;;;;12.67;12.67;;;;;14.49;56.33;101640.59;6277757;22;45350;-71
2023/04/15 17:37:06;;;;;;;;;15.25;13.00;;;;;14.17;56.55;101613.28;6277232;22;45249;-72
2023/04/15 17:39:31;;;;;;;;;11.00;11.00;;;;;14.23;56.71;101634.69;6249183;22;48132;-71